sensor_id;sensor_type;location;lat;lon;timestamp;pressure;altitude;pressure_sealevel;temperature;humidity
29733;BME280;16643;43.158;25.302;2023-05-22T00:01:43;97897.84;;;15.21;100.00
29733;BME280;16643;43.158;25.302;2023-05-22T00:04:09;97927.44;;;15.39;100.00
29733;BME280;16643;43.158;25.302;2023-05-22T00:06:41;97910.63;;;15.43;100.00
29733;BME280;16643;43.158;25.302;2023-05-22T00:09:07;97897.41;;;15.29;100.00
29733;BME280;16643;43.158;25.302;2023-05-22T00:11:33;97909.38;;;15.35;100.00
29733;BME280;16643;43.158;25.302;2023-05-22T00:14:00;97902.81;;;15.26;100.00
29733;BME280;16643;43.158;25.302;2023-05-22T00:16:26;97892.19;;;15.29;100.00
29733;BME280;16643;43.158;25.302;2023-05-22T00:18:53;97898.88;;;15.35;100.00
29733;BME280;16643;43.158;25.302;2023-05-22T00:21:19;97898.88;;;-142.82;100.00
29733;BME280;16643;43.158;25.302;2023-05-22T00:23:44;97869.41;;;15.14;100.00
29733;BME280;16643;43.158;25.302;2023-05-22T00:26:13;97891.56;;;15.24;100.00
29733;BME280;16643;43.158;25.302;2023-05-22T00:28:40;97878.09;;;15.14;100.00
29733;BME280;16643;43.158;25.302;2023-05-22T00:31:05;97872.28;;;15.09;100.00
29733;BME280;16643;43.158;25.302;2023-05-22T00:33:31;97843.13;;;15.00;100.00
29733;BME280;16643;43.158;25.302;2023-05-22T00:35:58;97856.72;;;15.06;100.00
29733;BME280;16643;43.158;25.302;2023-05-22T00:38:32;97865.72;;;15.18;100.00
29733;BME280;16643;43.158;25.302;2023-05-22T00:40:59;97881.19;;;15.22;100.00
29733;BME280;16643;43.158;25.302;2023-05-22T00:43:25;97880.44;;;15.20;100.00
29733;BME280;16643;43.158;25.302;2023-05-22T00:45:51;97899.75;;;15.18;100.00
29733;BME280;16643;43.158;25.302;2023-05-22T00:48:19;97908.72;;;14.97;100.00
29733;BME280;16643;43.158;25.302;2023-05-22T00:50:45;97889.41;;;14.82;100.00
29733;BME280;16643;43.158;25.302;2023-05-22T00:53:13;97894.63;;;14.82;100.00
29733;BME280;16643;43.158;25.302;2023-05-22T00:55:39;97873.66;;;14.66;100.00
29733;BME280;16643;43.158;25.302;2023-05-22T00:58:05;97889.84;;;14.90;100.00
29733;BME280;16643;43.158;25.302;2023-05-22T01:00:36;97872.31;;;14.75;100.00
29733;BME280;16643;43.158;25.302;2023-05-22T01:03:04;97872.09;;;14.62;100.00
29733;BME280;16643;43.158;25.302;2023-05-22T01:05:32;97891.63;;;14.72;100.00
29733;BME280;16643;43.158;25.302;2023-05-22T01:07:58;97881.25;;;14.71;100.00
29733;BME280;16643;43.158;25.302;2023-05-22T01:10:24;97872.03;;;14.64;100.00
29733;BME280;16643;43.158;25.302;2023-05-22T01:16:27;97881.09;;;14.39;100.00
29733;BME280;16643;43.158;25.302;2023-05-22T01:19:04;97873.41;;;14.35;100.00
29733;BME280;16643;43.158;25.302;2023-05-22T01:30:19;97880.59;;;14.31;100.00
29733;BME280;16643;43.158;25.302;2023-05-22T01:32:53;97861.31;;;14.15;100.00
29733;BME280;16643;43.158;25.302;2023-05-22T01:35:22;97838.47;;;14.01;100.00
29733;BME280;16643;43.158;25.302;2023-05-22T01:37:49;97843.75;;;13.82;100.00
29733;BME280;16643;43.158;25.302;2023-05-22T01:40:16;97837.81;;;13.79;100.00
29733;BME280;16643;43.158;25.302;2023-05-22T01:42:42;97869.00;;;13.82;100.00
29733;BME280;16643;43.158;25.302;2023-05-22T01:45:09;97866.59;;;13.96;100.00
29733;BME280;16643;43.158;25.302;2023-05-22T01:47:35;97851.78;;;13.97;100.00
29733;BME280;16643;43.158;25.302;2023-05-22T01:50:02;97868.00;;;14.03;100.00
29733;BME280;16643;43.158;25.302;2023-05-22T01:52:43;97877.53;;;14.04;100.00
29733;BME280;16643;43.158;25.302;2023-05-22T01:55:16;97852.13;;;13.89;100.00
29733;BME280;16643;43.158;25.302;2023-05-22T01:57:48;97873.03;;;13.89;100.00
29733;BME280;16643;43.158;25.302;2023-05-22T02:00:20;97869.16;;;13.98;100.00
29733;BME280;16643;43.158;25.302;2023-05-22T02:02:56;97865.00;;;13.75;100.00
29733;BME280;16643;43.158;25.302;2023-05-22T02:05:23;97875.56;;;13.91;100.00
29733;BME280;16643;43.158;25.302;2023-05-22T02:07:52;97855.75;;;13.68;100.00
29733;BME280;16643;43.158;25.302;2023-05-22T02:10:20;97875.03;;;13.84;100.00
29733;BME280;16643;43.158;25.302;2023-05-22T02:12:47;97870.78;;;13.81;100.00
29733;BME280;16643;43.158;25.302;2023-05-22T02:15:13;97859.78;;;13.75;100.00
29733;BME280;16643;43.158;25.302;2023-05-22T02:17:39;97846.78;;;13.73;100.00
29733;BME280;16643;43.158;25.302;2023-05-22T02:20:08;97858.94;;;13.74;100.00
29733;BME280;16643;43.158;25.302;2023-05-22T02:22:43;97863.84;;;13.80;100.00
29733;BME280;16643;43.158;25.302;2023-05-22T02:25:13;97885.34;;;13.87;100.00
29733;BME280;16643;43.158;25.302;2023-05-22T02:27:41;97884.31;;;13.90;100.00
29733;BME280;16643;43.158;25.302;2023-05-22T02:30:08;97867.88;;;13.69;100.00
29733;BME280;16643;43.158;25.302;2023-05-22T02:32:33;97881.81;;;13.88;100.00
29733;BME280;16643;43.158;25.302;2023-05-22T02:35:00;97894.50;;;13.77;100.00
29733;BME280;16643;43.158;25.302;2023-05-22T02:37:25;97869.38;;;13.74;100.00
29733;BME280;16643;43.158;25.302;2023-05-22T02:39:51;97864.28;;;13.71;100.00
29733;BME280;16643;43.158;25.302;2023-05-22T02:42:17;97885.75;;;13.78;100.00
29733;BME280;16643;43.158;25.302;2023-05-22T02:44:42;97866.91;;;13.71;100.00
29733;BME280;16643;43.158;25.302;2023-05-22T02:47:08;97869.59;;;13.70;100.00
29733;BME280;16643;43.158;25.302;2023-05-22T02:49:34;97865.06;;;13.73;100.00
29733;BME280;16643;43.158;25.302;2023-05-22T02:51:59;97844.19;;;13.73;100.00
29733;BME280;16643;43.158;25.302;2023-05-22T02:54:25;97870.50;;;13.88;100.00
29733;BME280;16643;43.158;25.302;2023-05-22T02:56:51;97871.34;;;13.88;100.00
29733;BME280;16643;43.158;25.302;2023-05-22T02:59:16;97862.31;;;13.76;100.00
29733;BME280;16643;43.158;25.302;2023-05-22T03:01:42;97847.69;;;13.72;100.00
29733;BME280;16643;43.158;25.302;2023-05-22T03:04:08;97847.56;;;13.75;100.00
29733;BME280;16643;43.158;25.302;2023-05-22T03:06:34;97866.19;;;13.87;100.00
29733;BME280;16643;43.158;25.302;2023-05-22T03:09:01;97844.19;;;13.73;100.00
29733;BME280;16643;43.158;25.302;2023-05-22T03:11:29;97851.22;;;13.71;100.00
29733;BME280;16643;43.158;25.302;2023-05-22T03:13:55;97839.38;;;13.64;100.00
29733;BME280;16643;43.158;25.302;2023-05-22T03:16:21;97857.31;;;13.72;100.00
29733;BME280;16643;43.158;25.302;2023-05-22T03:18:49;97863.16;;;13.77;100.00
29733;BME280;16643;43.158;25.302;2023-05-22T03:21:15;97858.53;;;13.65;100.00
29733;BME280;16643;43.158;25.302;2023-05-22T03:23:43;97846.94;;;13.70;100.00
29733;BME280;16643;43.158;25.302;2023-05-22T03:26:09;97865.56;;;13.81;100.00
29733;BME280;16643;43.158;25.302;2023-05-22T03:28:35;97822.03;;;13.63;100.00
29733;BME280;16643;43.158;25.302;2023-05-22T03:31:00;97870.38;;;13.72;100.00
29733;BME280;16643;43.158;25.302;2023-05-22T03:33:26;97853.56;;;13.59;100.00
29733;BME280;16643;43.158;25.302;2023-05-22T03:35:52;97850.69;;;13.65;100.00
29733;BME280;16643;43.158;25.302;2023-05-22T03:38:17;97831.22;;;13.53;100.00
29733;BME280;16643;43.158;25.302;2023-05-22T03:40:43;97842.50;;;13.54;100.00
29733;BME280;16643;43.158;25.302;2023-05-22T03:43:08;97843.91;;;13.61;100.00
29733;BME280;16643;43.158;25.302;2023-05-22T03:45:34;97857.56;;;13.85;100.00
29733;BME280;16643;43.158;25.302;2023-05-22T03:48:00;97845.22;;;13.88;100.00
29733;BME280;16643;43.158;25.302;2023-05-22T03:50:25;97841.84;;;13.86;100.00
29733;BME280;16643;43.158;25.302;2023-05-22T03:52:51;97839.34;;;13.83;100.00
29733;BME280;16643;43.158;25.302;2023-05-22T03:55:16;97857.53;;;14.03;100.00
29733;BME280;16643;43.158;25.302;2023-05-22T03:57:42;97895.16;;;14.18;100.00
29733;BME280;16643;43.158;25.302;2023-05-22T04:00:08;97869.25;;;14.13;100.00
29733;BME280;16643;43.158;25.302;2023-05-22T04:02:34;97871.50;;;14.21;100.00
29733;BME280;16643;43.158;25.302;2023-05-22T04:05:05;97856.41;;;14.26;100.00
29733;BME280;16643;43.158;25.302;2023-05-22T04:07:31;97874.97;;;14.39;100.00
29733;BME280;16643;43.158;25.302;2023-05-22T04:09:57;97855.47;;;14.46;100.00
29733;BME280;16643;43.158;25.302;2023-05-22T04:12:23;97865.50;;;14.55;100.00
29733;BME280;16643;43.158;25.302;2023-05-22T04:14:48;97901.03;;;14.76;100.00
29733;BME280;16643;43.158;25.302;2023-05-22T04:17:14;97884.00;;;14.85;100.00
29733;BME280;16643;43.158;25.302;2023-05-22T04:19:40;97869.75;;;14.90;100.00
29733;BME280;16643;43.158;25.302;2023-05-22T04:22:05;97854.81;;;14.93;100.00
29733;BME280;16643;43.158;25.302;2023-05-22T04:24:31;97849.47;;;14.78;100.00
29733;BME280;16643;43.158;25.302;2023-05-22T04:26:57;97851.19;;;14.95;100.00
29733;BME280;16643;43.158;25.302;2023-05-22T04:29:25;97864.91;;;15.00;100.00
29733;BME280;16643;43.158;25.302;2023-05-22T04:31:51;97874.91;;;15.09;100.00
29733;BME280;16643;43.158;25.302;2023-05-22T04:34:18;97875.56;;;15.13;100.00
29733;BME280;16643;43.158;25.302;2023-05-22T04:36:44;97895.97;;;15.23;100.00
29733;BME280;16643;43.158;25.302;2023-05-22T04:39:12;97877.81;;;15.36;100.00
29733;BME280;16643;43.158;25.302;2023-05-22T04:41:41;97899.25;;;15.44;100.00
29733;BME280;16643;43.158;25.302;2023-05-22T04:44:07;97866.25;;;15.40;100.00
29733;BME280;16643;43.158;25.302;2023-05-22T04:46:32;97884.78;;;15.53;100.00
29733;BME280;16643;43.158;25.302;2023-05-22T04:49:01;97880.28;;;15.56;100.00
29733;BME280;16643;43.158;25.302;2023-05-22T04:51:27;97883.63;;;15.58;100.00
29733;BME280;16643;43.158;25.302;2023-05-22T04:53:54;97877.47;;;15.59;100.00
29733;BME280;16643;43.158;25.302;2023-05-22T04:56:22;97868.69;;;15.60;100.00
29733;BME280;16643;43.158;25.302;2023-05-22T04:58:49;97892.28;;;15.76;100.00
29733;BME280;16643;43.158;25.302;2023-05-22T05:01:14;97887.78;;;15.63;100.00
29733;BME280;16643;43.158;25.302;2023-05-22T05:03:44;97894.38;;;15.70;100.00
29733;BME280;16643;43.158;25.302;2023-05-22T05:06:09;97888.91;;;15.74;100.00
29733;BME280;16643;43.158;25.302;2023-05-22T05:08:36;97889.91;;;15.72;100.00
29733;BME280;16643;43.158;25.302;2023-05-22T05:11:02;97868.88;;;15.73;100.00
29733;BME280;16643;43.158;25.302;2023-05-22T05:13:28;97905.31;;;15.93;100.00
29733;BME280;16643;43.158;25.302;2023-05-22T05:15:53;97899.56;;;15.87;100.00
29733;BME280;16643;43.158;25.302;2023-05-22T05:18:19;97881.91;;;15.90;100.00
29733;BME280;16643;43.158;25.302;2023-05-22T05:20:45;97897.03;;;16.01;100.00
29733;BME280;16643;43.158;25.302;2023-05-22T05:23:11;97891.44;;;16.07;100.00
29733;BME280;16643;43.158;25.302;2023-05-22T05:25:36;97900.84;;;16.11;100.00
29733;BME280;16643;43.158;25.302;2023-05-22T05:28:05;97895.84;;;16.22;100.00
29733;BME280;16643;43.158;25.302;2023-05-22T05:30:40;97909.97;;;16.36;100.00
29733;BME280;16643;43.158;25.302;2023-05-22T05:33:05;97883.56;;;16.23;100.00
29733;BME280;16643;43.158;25.302;2023-05-22T05:35:31;97912.44;;;16.53;100.00
29733;BME280;16643;43.158;25.302;2023-05-22T05:37:57;97894.84;;;16.55;100.00
29733;BME280;16643;43.158;25.302;2023-05-22T05:40:23;97895.19;;;16.64;100.00
29733;BME280;16643;43.158;25.302;2023-05-22T05:42:49;97914.75;;;16.89;100.00
29733;BME280;16643;43.158;25.302;2023-05-22T05:45:15;97885.66;;;16.78;100.00
29733;BME280;16643;43.158;25.302;2023-05-22T05:47:40;97911.47;;;16.85;100.00
29733;BME280;16643;43.158;25.302;2023-05-22T05:50:06;97923.34;;;16.77;100.00
29733;BME280;16643;43.158;25.302;2023-05-22T05:52:32;97916.66;;;16.71;100.00
29733;BME280;16643;43.158;25.302;2023-05-22T05:54:59;97919.88;;;16.76;100.00
29733;BME280;16643;43.158;25.302;2023-05-22T05:57:28;97915.22;;;16.81;100.00
29733;BME280;16643;43.158;25.302;2023-05-22T05:59:54;97893.44;;;16.79;100.00
29733;BME280;16643;43.158;25.302;2023-05-22T06:02:20;97920.41;;;16.97;100.00
29733;BME280;16643;43.158;25.302;2023-05-22T06:04:45;97917.31;;;17.04;100.00
29733;BME280;16643;43.158;25.302;2023-05-22T06:07:14;97934.16;;;16.86;100.00
29733;BME280;16643;43.158;25.302;2023-05-22T06:09:40;97901.53;;;16.90;100.00
29733;BME280;16643;43.158;25.302;2023-05-22T06:12:06;97925.59;;;17.13;100.00
29733;BME280;16643;43.158;25.302;2023-05-22T06:14:36;97917.44;;;17.03;100.00
29733;BME280;16643;43.158;25.302;2023-05-22T06:17:02;97876.78;;;16.94;100.00
29733;BME280;16643;43.158;25.302;2023-05-22T06:19:28;97887.22;;;17.10;100.00
29733;BME280;16643;43.158;25.302;2023-05-22T06:21:53;97890.69;;;17.11;100.00
29733;BME280;16643;43.158;25.302;2023-05-22T06:24:19;97887.69;;;17.17;100.00
29733;BME280;16643;43.158;25.302;2023-05-22T06:26:45;97873.81;;;17.15;100.00
29733;BME280;16643;43.158;25.302;2023-05-22T06:29:10;97908.38;;;17.37;100.00
29733;BME280;16643;43.158;25.302;2023-05-22T06:31:36;97885.47;;;17.25;100.00
29733;BME280;16643;43.158;25.302;2023-05-22T06:34:03;97913.34;;;17.56;100.00
29733;BME280;16643;43.158;25.302;2023-05-22T06:36:29;97915.16;;;17.69;100.00
29733;BME280;16643;43.158;25.302;2023-05-22T06:38:54;97917.78;;;17.69;100.00
29733;BME280;16643;43.158;25.302;2023-05-22T06:41:20;97932.63;;;17.70;100.00
29733;BME280;16643;43.158;25.302;2023-05-22T06:43:47;97900.66;;;17.48;100.00
29733;BME280;16643;43.158;25.302;2023-05-22T06:46:12;97915.50;;;17.49;100.00
29733;BME280;16643;43.158;25.302;2023-05-22T06:48:38;97867.25;;;17.22;100.00
29733;BME280;16643;43.158;25.302;2023-05-22T06:51:03;97910.03;;;17.52;100.00
29733;BME280;16643;43.158;25.302;2023-05-22T06:53:29;97896.44;;;17.60;100.00
29733;BME280;16643;43.158;25.302;2023-05-22T06:55:55;97868.09;;;17.36;100.00
29733;BME280;16643;43.158;25.302;2023-05-22T06:58:21;97870.34;;;17.57;100.00
29733;BME280;16643;43.158;25.302;2023-05-22T07:00:47;97866.88;;;17.56;100.00
29733;BME280;16643;43.158;25.302;2023-05-22T07:03:12;97878.78;;;17.76;100.00
29733;BME280;16643;43.158;25.302;2023-05-22T07:05:38;97891.31;;;17.99;100.00
29733;BME280;16643;43.158;25.302;2023-05-22T07:08:03;97878.75;;;18.04;98.17
29733;BME280;16643;43.158;25.302;2023-05-22T07:10:30;97915.44;;;18.47;96.71
29733;BME280;16643;43.158;25.302;2023-05-22T07:12:55;97893.88;;;18.55;97.23
29733;BME280;16643;43.158;25.302;2023-05-22T07:15:21;97886.16;;;18.51;95.86
29733;BME280;16643;43.158;25.302;2023-05-22T07:17:47;97911.13;;;18.85;96.32
29733;BME280;16643;43.158;25.302;2023-05-22T07:20:13;97914.50;;;18.88;93.52
29733;BME280;16643;43.158;25.302;2023-05-22T07:22:40;97881.31;;;18.85;91.99
29733;BME280;16643;43.158;25.302;2023-05-22T07:25:06;97948.84;;;19.26;94.27
29733;BME280;16643;43.158;25.302;2023-05-22T07:27:33;97916.47;;;19.23;93.40
29733;BME280;16643;43.158;25.302;2023-05-22T07:29:58;73591.31;;;-142.82;93.40
29733;BME280;16643;43.158;25.302;2023-05-22T07:32:24;73611.13;;;-142.82;93.26
29733;BME280;16643;43.158;25.302;2023-05-22T07:34:50;97890.53;;;18.65;93.08
29733;BME280;16643;43.158;25.302;2023-05-22T07:37:15;97931.59;;;18.82;96.43
29733;BME280;16643;43.158;25.302;2023-05-22T07:39:41;97944.09;;;18.78;95.16
29733;BME280;16643;43.158;25.302;2023-05-22T07:42:07;97904.13;;;18.59;96.16
29733;BME280;16643;43.158;25.302;2023-05-22T07:44:32;97908.88;;;18.67;96.21
29733;BME280;16643;43.158;25.302;2023-05-22T07:46:58;97869.31;;;18.14;97.11
29733;BME280;16643;43.158;25.302;2023-05-22T07:49:24;97897.09;;;18.45;96.36
29733;BME280;16643;43.158;25.302;2023-05-22T07:51:50;97893.34;;;18.49;96.87
29733;BME280;16643;43.158;25.302;2023-05-22T07:54:16;97923.66;;;18.69;99.58
29733;BME280;16643;43.158;25.302;2023-05-22T07:56:43;97890.97;;;18.59;98.56
29733;BME280;16643;43.158;25.302;2023-05-22T07:59:10;97881.94;;;18.76;97.65
29733;BME280;16643;43.158;25.302;2023-05-22T08:01:39;97938.50;;;19.22;96.27
29733;BME280;16643;43.158;25.302;2023-05-22T08:04:06;97888.63;;;19.19;92.45
29733;BME280;16643;43.158;25.302;2023-05-22T08:06:32;97930.09;;;19.68;90.06
29733;BME280;16643;43.158;25.302;2023-05-22T08:09:02;97921.63;;;19.76;89.90
29733;BME280;16643;43.158;25.302;2023-05-22T08:11:28;97945.22;;;20.03;88.31
29733;BME280;16643;43.158;25.302;2023-05-22T08:13:54;97885.81;;;19.97;85.81
29733;BME280;16643;43.158;25.302;2023-05-22T08:16:21;97930.06;;;20.30;82.97
29733;BME280;16643;43.158;25.302;2023-05-22T08:18:46;97907.66;;;20.36;82.28
29733;BME280;16643;43.158;25.302;2023-05-22T08:21:12;97911.66;;;20.41;84.06
29733;BME280;16643;43.158;25.302;2023-05-22T08:23:38;97936.00;;;20.57;84.33
29733;BME280;16643;43.158;25.302;2023-05-22T08:26:04;97887.81;;;20.30;83.32
29733;BME280;16643;43.158;25.302;2023-05-22T08:28:30;97940.19;;;20.36;85.14
29733;BME280;16643;43.158;25.302;2023-05-22T08:30:55;97906.75;;;20.11;86.74
29733;BME280;16643;43.158;25.302;2023-05-22T08:33:21;97891.66;;;20.13;87.66
29733;BME280;16643;43.158;25.302;2023-05-22T08:35:47;97890.19;;;19.85;87.92
29733;BME280;16643;43.158;25.302;2023-05-22T08:38:13;97917.03;;;20.03;89.80
29733;BME280;16643;43.158;25.302;2023-05-22T08:40:39;97907.72;;;20.10;88.46
29733;BME280;16643;43.158;25.302;2023-05-22T08:43:05;97919.34;;;20.44;88.84
29733;BME280;16643;43.158;25.302;2023-05-22T08:45:32;97925.69;;;20.65;88.22
29733;BME280;16643;43.158;25.302;2023-05-22T08:48:04;97912.31;;;20.80;84.26
29733;BME280;16643;43.158;25.302;2023-05-22T08:50:30;97911.28;;;20.93;81.89
29733;BME280;16643;43.158;25.302;2023-05-22T08:52:59;97924.13;;;21.22;85.29
29733;BME280;16643;43.158;25.302;2023-05-22T08:55:27;97921.50;;;21.33;82.82
29733;BME280;16643;43.158;25.302;2023-05-22T08:57:55;97910.31;;;21.29;80.97
29733;BME280;16643;43.158;25.302;2023-05-22T09:00:21;97892.75;;;21.28;81.42
29733;BME280;16643;43.158;25.302;2023-05-22T09:02:48;97900.34;;;21.33;81.89
29733;BME280;16643;43.158;25.302;2023-05-22T09:05:14;97908.63;;;21.28;81.83
29733;BME280;16643;43.158;25.302;2023-05-22T09:07:41;97919.38;;;21.14;82.06
29733;BME280;16643;43.158;25.302;2023-05-22T09:10:07;97926.28;;;21.28;81.76
29733;BME280;16643;43.158;25.302;2023-05-22T09:12:33;97906.25;;;21.48;81.87
29733;BME280;16643;43.158;25.302;2023-05-22T09:15:08;97896.16;;;21.75;78.98
29733;BME280;16643;43.158;25.302;2023-05-22T09:17:38;97910.94;;;22.22;79.54
29733;BME280;16643;43.158;25.302;2023-05-22T09:20:05;97898.22;;;22.37;78.98
29733;BME280;16643;43.158;25.302;2023-05-22T09:22:37;97927.00;;;22.41;76.48
29733;BME280;16643;43.158;25.302;2023-05-22T09:25:03;97910.81;;;21.90;78.14
29733;BME280;16643;43.158;25.302;2023-05-22T09:27:29;97898.19;;;21.71;79.90
29733;BME280;16643;43.158;25.302;2023-05-22T09:29:56;97922.03;;;22.05;81.87
29733;BME280;16643;43.158;25.302;2023-05-22T09:32:22;97922.38;;;22.12;76.63
29733;BME280;16643;43.158;25.302;2023-05-22T09:34:48;97891.94;;;21.84;72.85
29733;BME280;16643;43.158;25.302;2023-05-22T09:37:15;97910.22;;;21.87;73.12
29733;BME280;16643;43.158;25.302;2023-05-22T09:39:46;97902.28;;;21.87;73.05
29733;BME280;16643;43.158;25.302;2023-05-22T09:42:14;97882.31;;;21.83;68.74
29733;BME280;16643;43.158;25.302;2023-05-22T09:44:41;97927.56;;;22.02;71.27
29733;BME280;16643;43.158;25.302;2023-05-22T09:47:08;97886.63;;;22.06;72.18
29733;BME280;16643;43.158;25.302;2023-05-22T09:49:44;97914.41;;;22.34;70.36
29733;BME280;16643;43.158;25.302;2023-05-22T09:52:10;97907.09;;;22.47;72.82
29733;BME280;16643;43.158;25.302;2023-05-22T09:54:53;97904.56;;;22.57;74.13
29733;BME280;16643;43.158;25.302;2023-05-22T09:57:21;97907.94;;;21.71;67.72
29733;BME280;16643;43.158;25.302;2023-05-22T09:59:50;97894.56;;;22.06;70.61
29733;BME280;16643;43.158;25.302;2023-05-22T10:02:21;97881.25;;;22.39;73.56
29733;BME280;16643;43.158;25.302;2023-05-22T10:04:48;97911.38;;;22.70;72.81
29733;BME280;16643;43.158;25.302;2023-05-22T10:07:34;97891.16;;;22.58;71.59
29733;BME280;16643;43.158;25.302;2023-05-22T10:10:10;97897.97;;;22.72;73.04
29733;BME280;16643;43.158;25.302;2023-05-22T10:12:59;97904.94;;;22.84;72.69
29733;BME280;16643;43.158;25.302;2023-05-22T10:15:25;97906.09;;;23.02;71.32
29733;BME280;16643;43.158;25.302;2023-05-22T10:17:51;97903.09;;;22.96;72.96
29733;BME280;16643;43.158;25.302;2023-05-22T10:20:18;97884.66;;;23.15;75.19
29733;BME280;16643;43.158;25.302;2023-05-22T10:22:45;97874.53;;;23.30;71.80
29733;BME280;16643;43.158;25.302;2023-05-22T10:25:11;97882.44;;;23.41;73.85
29733;BME280;16643;43.158;25.302;2023-05-22T10:27:38;97875.38;;;23.30;72.72
29733;BME280;16643;43.158;25.302;2023-05-22T10:33:02;97877.44;;;23.68;72.62
29733;BME280;16643;43.158;25.302;2023-05-22T10:40:58;97876.94;;;24.53;70.33
29733;BME280;16643;43.158;25.302;2023-05-22T10:43:23;97872.19;;;24.56;64.83
29733;BME280;16643;43.158;25.302;2023-05-22T10:46:01;97860.84;;;24.64;69.65
29733;BME280;16643;43.158;25.302;2023-05-22T10:48:27;97881.00;;;24.57;66.45
29733;BME280;16643;43.158;25.302;2023-05-22T10:50:53;97841.94;;;24.77;69.40
29733;BME280;16643;43.158;25.302;2023-05-22T10:53:26;97862.50;;;25.13;68.55
29733;BME280;16643;43.158;25.302;2023-05-22T10:55:56;97846.97;;;25.09;65.19
29733;BME280;16643;43.158;25.302;2023-05-22T10:58:29;97866.84;;;24.76;64.95
29733;BME280;16643;43.158;25.302;2023-05-22T11:04:00;97855.09;;;24.49;64.39
29733;BME280;16643;43.158;25.302;2023-05-22T11:08:57;97850.81;;;23.89;68.32
29733;BME280;16643;43.158;25.302;2023-05-22T11:11:24;97841.00;;;23.80;67.47
29733;BME280;16643;43.158;25.302;2023-05-22T11:14:10;97834.16;;;23.87;68.32
29733;BME280;16643;43.158;25.302;2023-05-22T11:16:37;97844.38;;;23.92;69.97
29733;BME280;16643;43.158;25.302;2023-05-22T11:19:07;97834.88;;;23.89;69.89
29733;BME280;16643;43.158;25.302;2023-05-22T11:21:43;97846.91;;;24.03;64.82
29733;BME280;16643;43.158;25.302;2023-05-22T11:24:11;97827.19;;;23.96;66.21
29733;BME280;16643;43.158;25.302;2023-05-22T11:26:40;97819.31;;;23.75;68.66
29733;BME280;16643;43.158;25.302;2023-05-22T11:29:07;97823.25;;;23.80;69.45
29733;BME280;16643;43.158;25.302;2023-05-22T11:31:34;97815.59;;;24.06;67.53
29733;BME280;16643;43.158;25.302;2023-05-22T11:34:01;97826.28;;;24.35;65.61
29733;BME280;16643;43.158;25.302;2023-05-22T11:36:26;97804.31;;;24.33;66.00
29733;BME280;16643;43.158;25.302;2023-05-22T11:38:57;97793.13;;;24.58;67.02
29733;BME280;16643;43.158;25.302;2023-05-22T11:41:23;97788.88;;;24.85;66.52
29733;BME280;16643;43.158;25.302;2023-05-22T11:43:49;97792.38;;;25.05;68.02
29733;BME280;16643;43.158;25.302;2023-05-22T11:46:14;97795.22;;;25.30;65.07
29733;BME280;16643;43.158;25.302;2023-05-22T11:48:40;97798.19;;;25.27;65.98
29733;BME280;16643;43.158;25.302;2023-05-22T11:51:07;97791.88;;;25.19;65.04
29733;BME280;16643;43.158;25.302;2023-05-22T11:53:34;97766.75;;;25.04;63.13
29733;BME280;16643;43.158;25.302;2023-05-22T11:56:04;97765.22;;;24.91;62.92
29733;BME280;16643;43.158;25.302;2023-05-22T11:58:30;97759.94;;;25.19;64.63
29733;BME280;16643;43.158;25.302;2023-05-22T12:00:57;97749.75;;;25.42;61.00
29733;BME280;16643;43.158;25.302;2023-05-22T12:03:23;97735.22;;;25.36;63.01
29733;BME280;16643;43.158;25.302;2023-05-22T12:05:49;97743.41;;;25.52;61.60
29733;BME280;16643;43.158;25.302;2023-05-22T12:08:15;97745.53;;;25.21;59.96
29733;BME280;16643;43.158;25.302;2023-05-22T12:10:48;97751.63;;;25.31;60.19
29733;BME280;16643;43.158;25.302;2023-05-22T12:13:23;97746.06;;;25.25;59.47
29733;BME280;16643;43.158;25.302;2023-05-22T12:15:53;97744.47;;;25.05;58.43
29733;BME280;16643;43.158;25.302;2023-05-22T12:18:20;97743.09;;;25.01;60.88
29733;BME280;16643;43.158;25.302;2023-05-22T12:20:46;97726.13;;;25.02;58.74
29733;BME280;16643;43.158;25.302;2023-05-22T12:23:24;97743.22;;;24.89;59.64
29733;BME280;16643;43.158;25.302;2023-05-22T12:26:16;97748.25;;;25.02;59.97
29733;BME280;16643;43.158;25.302;2023-05-22T12:28:42;97718.59;;;24.87;59.46
29733;BME280;16643;43.158;25.302;2023-05-22T12:31:08;97730.84;;;24.61;62.06
29733;BME280;16643;43.158;25.302;2023-05-22T12:33:33;97743.47;;;24.59;60.92
29733;BME280;16643;43.158;25.302;2023-05-22T12:35:59;97707.50;;;24.16;62.41
29733;BME280;16643;43.158;25.302;2023-05-22T12:38:31;97721.22;;;24.21;64.06
29733;BME280;16643;43.158;25.302;2023-05-22T12:40:57;97705.97;;;24.04;64.17
29733;BME280;16643;43.158;25.302;2023-05-22T12:43:23;97713.13;;;24.13;61.57
29733;BME280;16643;43.158;25.302;2023-05-22T12:45:52;97702.63;;;24.02;61.55
29733;BME280;16643;43.158;25.302;2023-05-22T12:48:18;97714.38;;;24.19;62.24
29733;BME280;16643;43.158;25.302;2023-05-22T12:50:44;97714.91;;;24.51;62.95
29733;BME280;16643;43.158;25.302;2023-05-22T12:53:11;97708.69;;;24.80;57.88
29733;BME280;16643;43.158;25.302;2023-05-22T12:55:37;97714.84;;;25.17;59.95
29733;BME280;16643;43.158;25.302;2023-05-22T12:58:04;97714.00;;;25.26;58.35
29733;BME280;16643;43.158;25.302;2023-05-22T13:00:30;97706.03;;;24.80;57.57
29733;BME280;16643;43.158;25.302;2023-05-22T13:02:56;97697.31;;;24.87;59.54
29733;BME280;16643;43.158;25.302;2023-05-22T13:05:23;97693.47;;;25.09;57.47
29733;BME280;16643;43.158;25.302;2023-05-22T13:07:49;97718.53;;;25.07;58.88
29733;BME280;16643;43.158;25.302;2023-05-22T13:10:14;97710.59;;;24.97;57.34
29733;BME280;16643;43.158;25.302;2023-05-22T13:12:40;97700.44;;;24.73;59.85